Time;durP1;ratioP1;P1;durP2;ratioP2;P2;SDS_P1;SDS_P2;PMS_P1;PMS_P2;Temp;Humidity;BMP_temperature;BMP_pressure;BME280_temperature;BME280_humidity;BME280_pressure;Samples;Min_cycle;Max_cycle;Signal;HPM_P1;HPM_P2
2022/11/18 00:07:20;;;;;;;13.50;11.10;;;;;;;-2.73;82.40;98388.39;420366;1276;143843;-62
2022/11/18 00:17:25;;;;;;;12.30;11.00;;;;;;;-2.76;82.30;98383.14;419416;1283;147502;-61
2022/11/18 00:27:32;;;;;;;11.70;9.30;;;;;;;-2.82;82.18;98383.83;419692;1277;149827;-62
2022/11/18 00:37:38;;;;;;;10.60;9.40;;;;;;;-2.89;82.12;98386.77;423164;1275;144629;-63
2022/11/18 00:47:43;;;;;;;11.10;9.90;;;;;;;-2.91;81.95;98389.91;421974;1278;143261;-61
2022/11/18 00:57:49;;;;;;;11.50;10.30;;;;;;;-3.05;81.70;98383.98;421714;1278;143061;-60
2022/11/18 01:07:55;;;;;;;11.30;10.20;;;;;;;-3.06;81.78;98397.01;424414;1283;143507;-63
2022/11/18 01:18:00;;;;;;;12.30;10.90;;;;;;;-3.03;81.65;98401.73;420057;1277;145743;-61
2022/11/18 01:28:06;;;;;;;13.10;10.70;;;;;;;-3.00;81.72;98407.13;422050;1275;147256;-63
2022/11/18 01:38:14;;;;;;;12.60;11.30;;;;;;;-3.08;81.09;98417.46;420520;1278;143798;-62
2022/11/18 01:48:24;;;;;;;10.90;9.80;;;;;;;-3.15;81.02;98423.96;420384;1282;186056;-63
2022/11/18 01:58:35;;;;;;;10.00;9.00;;;;;;;-3.20;80.56;98421.02;422071;1277;143460;-62
2022/11/18 02:08:42;;;;;;;10.30;9.30;;;;;;;-3.24;80.66;98406.55;418819;1283;143187;-62
2022/11/18 02:18:55;;;;;;;10.90;9.80;;;;;;;-3.21;80.74;98393.48;423060;1278;143282;-64
2022/11/18 02:29:08;;;;;;;10.40;9.30;;;;;;;-3.16;80.82;98393.34;421206;1283;145094;-62
2022/11/18 02:39:21;;;;;;;12.20;11.10;;;;;;;-3.10;80.92;98393.70;420436;1277;146244;-61
2022/11/18 02:49:33;;;;;;;11.60;10.00;;;;;;;-3.15;80.38;98375.50;419939;1277;143288;-63
2022/11/18 02:59:39;;;;;;;12.00;10.70;;;;;;;-3.25;79.91;98363.64;419515;1282;154556;-63
2022/11/18 03:09:47;;;;;;;10.30;9.10;;;;;;;-3.32;79.46;98368.45;420019;1277;144671;-63
2022/11/18 03:20:06;;;;;;;11.70;9.40;;;;;;;-3.40;79.17;98365.05;420671;1277;143056;-62
2022/11/18 03:30:15;;;;;;;8.90;8.00;;;;;;;-3.40;79.02;98355.48;421788;1277;142530;-63
2022/11/18 03:40:28;;;;;;;11.50;9.00;;;;;;;-3.39;78.94;98345.69;421871;1277;146574;-62
2022/11/18 03:50:39;;;;;;;13.20;9.20;;;;;;;-3.45;78.95;98343.45;420934;1280;142650;-63
2022/11/18 04:00:48;;;;;;;13.30;10.80;;;;;;;-3.46;78.81;98343.98;420776;1282;198491;-63
2022/11/18 04:11:00;;;;;;;12.20;10.00;;;;;;;-3.47;78.95;98342.47;420952;1278;144113;-65
2022/11/18 04:21:07;;;;;;;11.30;9.80;;;;;;;-3.48;78.75;98324.89;422037;1276;143620;-63
2022/11/18 04:31:12;;;;;;;14.80;11.30;;;;;;;-3.44;78.83;98309.73;420116;1283;143984;-63
2022/11/18 04:41:18;;;;;;;14.20;12.70;;;;;;;-3.46;78.49;98319.52;421430;1277;142403;-64
2022/11/18 04:51:24;;;;;;;14.60;12.40;;;;;;;-3.52;78.40;98317.96;421638;1278;144050;-63
2022/11/18 05:01:30;;;;;;;19.90;15.60;;;;;;;-3.47;78.66;98321.27;420621;1283;143503;-63
2022/11/18 05:22:00;;;;;;;17.80;13.50;;;;;;;-3.40;78.90;98322.63;420501;1278;142796;-62
2022/11/18 05:32:06;;;;;;;14.00;11.90;;;;;;;-3.39;79.26;98316.77;428977;1283;143620;-63
2022/11/18 05:52:36;;;;;;;16.90;13.40;;;;;;;-3.33;80.07;98330.98;425320;1284;145265;-63
2022/11/18 06:02:43;;;;;;;17.80;14.30;;;;;;;-3.31;80.50;98344.80;419292;1274;146071;-63
2022/11/18 06:12:52;;;;;;;23.10;13.80;;;;;;;-3.36;81.08;98362.39;436133;1276;143975;-63
2022/11/18 06:22:59;;;;;;;20.90;14.50;;;;;;;-3.30;81.80;98376.42;436256;1283;144807;-63
2022/11/18 06:33:05;;;;;;;18.10;12.90;;;;;;;-3.29;82.33;98391.65;430430;1281;144645;-63
2022/11/18 06:53:36;;;;;;;17.20;10.90;;;;;;;-3.38;83.21;98410.35;435632;1284;255773;-66
2022/11/18 07:03:43;;;;;;;13.90;9.10;;;;;;;-3.37;83.02;98405.69;436158;1277;210104;-64
2022/11/18 07:13:49;;;;;;;8.40;7.50;;;;;;;-3.27;82.51;98409.39;436194;1284;145904;-63
2022/11/18 07:23:55;;;;;;;9.80;7.50;;;;;;;-3.18;81.83;98413.25;435467;1276;144231;-63
2022/11/18 07:34:01;;;;;;;11.20;8.90;;;;;;;-3.12;81.52;98421.48;424332;1278;143350;-63
2022/11/18 07:44:07;;;;;;;8.50;7.40;;;;;;;-3.17;81.98;98425.04;436215;1285;143840;-63
2022/11/18 07:54:15;;;;;;;12.60;9.90;;;;;;;-3.16;82.31;98426.91;435514;1284;144386;-64
2022/11/18 08:04:21;;;;;;;15.80;10.90;;;;;;;-3.14;82.62;98424.45;436241;1277;143084;-64
2022/11/18 08:14:28;;;;;;;8.10;7.30;;;;;;;-3.18;82.85;98424.73;436279;1288;143375;-64
2022/11/18 08:24:33;;;;;;;5.00;4.40;;;;;;;-3.19;82.03;98431.07;435519;1285;143377;-63
2022/11/18 08:34:39;;;;;;;5.30;4.70;;;;;;;-3.18;81.22;98431.74;434321;1291;146016;-63
2022/11/18 08:44:44;;;;;;;5.30;4.80;;;;;;;-3.14;81.15;98429.41;435530;1287;144438;-63
2022/11/18 08:54:50;;;;;;;6.30;4.40;;;;;;;-3.25;80.79;98431.08;436240;1284;142833;-63
2022/11/18 09:04:56;;;;;;;5.00;4.00;;;;;;;-3.20;80.96;98437.96;436281;1275;143137;-63
2022/11/18 09:15:01;;;;;;;4.70;4.10;;;;;;;-3.16;79.90;98446.75;435533;1285;142758;-64
2022/11/18 09:25:19;;;;;;;5.80;4.50;;;;;;;-3.09;79.18;98442.47;436191;1283;143397;-63
2022/11/18 09:35:25;;;;;;;3.00;2.60;;;;;;;-2.98;78.23;98439.60;420256;1277;143083;-64
2022/11/18 09:45:38;;;;;;;3.20;2.80;;;;;;;-2.85;76.92;98431.89;427707;1280;142532;-63
2022/11/18 09:55:44;;;;;;;3.90;3.00;;;;;;;-2.59;76.10;98431.15;436251;1285;141892;-63
2022/11/18 10:05:56;;;;;;;4.70;3.10;;;;;;;-2.35;75.09;98425.49;435500;1285;142334;-64
2022/11/18 10:16:15;;;;;;;4.50;3.90;;;;;;;-2.20;74.74;98417.31;436099;1290;145505;-63
2022/11/18 10:26:35;;;;;;;4.60;3.10;;;;;;;-2.17;73.31;98426.66;436278;1284;143820;-63
2022/11/18 10:36:41;;;;;;;3.90;3.00;;;;;;;-2.16;73.95;98430.91;431459;1285;198702;-63
2022/11/18 10:46:47;;;;;;;6.10;3.70;;;;;;;-2.05;73.62;98426.31;436261;1281;143169;-63
2022/11/18 10:56:56;;;;;;;2.70;2.20;;;;;;;-2.01;73.28;98436.46;435523;1280;145076;-64
2022/11/18 11:07:16;;;;;;;4.60;3.30;;;;;;;-2.04;72.88;98440.47;436233;1290;143363;-63
2022/11/18 11:17:30;;;;;;;6.00;3.30;;;;;;;-2.01;72.30;98455.85;436273;1284;143660;-64
2022/11/18 11:27:44;;;;;;;5.00;3.10;;;;;;;-1.97;71.92;98466.69;435685;1284;198530;-63
2022/11/18 11:38:17;;;;;;;5.90;3.10;;;;;;;-1.73;71.76;98469.21;436196;1283;145156;-64
2022/11/18 11:48:38;;;;;;;3.20;2.90;;;;;;;-1.44;71.05;98473.27;435501;1290;142982;-63
2022/11/18 11:59:05;;;;;;;4.00;2.30;;;;;;;-1.41;70.72;98473.52;436310;1292;143831;-63
2022/11/18 12:09:18;;;;;;;5.10;3.00;;;;;;;-1.56;70.35;98470.23;435538;1288;194371;-63
2022/11/18 12:19:25;;;;;;;4.90;3.20;;;;;;;-1.75;69.92;98469.78;436282;1280;143006;-63
2022/11/18 12:29:43;;;;;;;7.40;3.20;;;;;;;-1.79;69.78;98471.47;431091;1280;143458;-61
2022/11/18 12:39:57;;;;;;;3.10;2.50;;;;;;;-1.82;69.87;98472.24;435754;1281;214141;-62
2022/11/18 12:50:15;;;;;;;4.80;3.80;;;;;;;-1.91;70.20;98476.11;436227;1284;144181;-62
2022/11/18 13:32:06;;;;;;;9.80;5.00;;;;;;;-1.70;73.23;98462.08;428038;1281;144896;-62
2022/11/18 13:42:19;;;;;;;5.40;4.80;;;;;;;-1.80;73.68;98479.23;435277;1284;143800;-63
2022/11/18 13:52:31;;;;;;;7.70;5.20;;;;;;;-1.95;73.34;98492.21;424335;1283;143171;-62
2022/11/18 14:02:45;;;;;;;6.80;5.10;;;;;;;-2.05;73.51;98488.72;435132;1290;145542;-63
2022/11/18 14:12:59;;;;;;;5.20;4.20;;;;;;;-2.11;73.04;98501.75;434803;1284;143135;-63
2022/11/18 14:23:14;;;;;;;5.70;4.90;;;;;;;-2.18;72.41;98507.80;435972;1284;143314;-64
2022/11/18 14:33:23;;;;;;;5.20;4.20;;;;;;;-2.22;72.55;98508.97;435130;1285;143690;-63
2022/11/18 14:43:28;;;;;;;4.60;3.80;;;;;;;-2.26;72.28;98522.59;436079;1289;142739;-63
2022/11/18 14:53:34;;;;;;;10.70;5.00;;;;;;;-2.28;72.68;98533.98;436159;1282;146934;-63
2022/11/18 15:03:41;;;;;;;5.60;3.70;;;;;;;-2.28;72.77;98535.85;435764;1283;200039;-62
2022/11/18 15:13:47;;;;;;;17.40;6.70;;;;;;;-2.31;72.22;98543.64;436168;1285;141985;-62
2022/11/18 15:23:54;;;;;;;6.40;5.10;;;;;;;-2.35;72.21;98548.91;435412;1284;142853;-62
2022/11/18 15:33:59;;;;;;;18.70;8.90;;;;;;;-2.42;72.34;98564.00;426899;1281;142797;-63
2022/11/18 15:44:12;;;;;;;12.40;5.70;;;;;;;-2.46;72.65;98571.13;428480;1277;143083;-63
2022/11/18 15:54:19;;;;;;;7.90;5.30;;;;;;;-2.52;72.95;98574.73;435082;1290;144007;-63
2022/11/18 16:04:26;;;;;;;5.60;4.00;;;;;;;-2.57;73.05;98593.38;435882;1277;142381;-63
2022/11/18 16:14:31;;;;;;;9.00;5.20;;;;;;;-2.65;73.07;98606.08;435915;1290;142933;-64
2022/11/18 16:24:37;;;;;;;9.80;6.00;;;;;;;-2.68;73.61;98609.94;435446;1284;210549;-64
2022/11/18 16:34:48;;;;;;;7.40;5.70;;;;;;;-2.73;74.40;98615.20;436024;1282;143701;-63
2022/11/18 16:44:54;;;;;;;7.80;6.30;;;;;;;-2.81;75.22;98625.52;435209;1280;142677;-63
2022/11/18 16:55:00;;;;;;;9.20;6.20;;;;;;;-2.84;75.92;98624.39;435931;1280;143064;-62
2022/11/18 17:05:07;;;;;;;10.10;7.60;;;;;;;-2.87;76.35;98627.38;433945;1288;143629;-62
2022/11/18 17:15:13;;;;;;;16.00;8.30;;;;;;;-2.90;76.92;98632.92;435281;1283;143027;-63
2022/11/18 17:25:18;;;;;;;9.70;7.80;;;;;;;-2.91;77.32;98640.48;436063;1284;145469;-64
2022/11/18 17:35:24;;;;;;;12.70;9.20;;;;;;;-2.94;77.60;98637.30;433146;1278;142733;-63
2022/11/18 17:45:30;;;;;;;11.80;9.40;;;;;;;-3.01;77.93;98643.11;429467;1278;143438;-63
2022/11/18 17:55:35;;;;;;;15.90;10.20;;;;;;;-3.02;78.33;98646.22;422659;1283;142805;-63
2022/11/18 18:05:41;;;;;;;12.70;9.70;;;;;;;-3.07;78.74;98652.85;435247;1282;202658;-63
2022/11/18 18:15:46;;;;;;;13.90;10.40;;;;;;;-3.09;79.16;98658.70;431202;1278;186207;-63
2022/11/18 18:25:52;;;;;;;14.00;11.20;;;;;;;-3.03;79.57;98665.09;435962;1280;142913;-63
2022/11/18 18:35:59;;;;;;;14.70;12.10;;;;;;;-2.99;79.79;98674.42;435222;1277;143447;-63
2022/11/18 18:56:30;;;;;;;21.50;15.10;;;;;;;-2.95;80.59;98676.04;428201;1278;157081;-63
2022/11/18 19:06:37;;;;;;;11.40;10.00;;;;;;;-3.07;80.80;98690.02;425657;1284;199787;-62
2022/11/18 19:17:00;;;;;;;10.90;9.30;;;;;;;-3.23;80.76;98700.27;436092;1280;145729;-63
2022/11/18 19:27:14;;;;;;;11.20;10.00;;;;;;;-3.27;80.99;98705.16;435087;1283;143174;-63
2022/11/18 19:37:20;;;;;;;14.00;10.80;;;;;;;-3.32;80.88;98712.63;427470;1277;143376;-63
2022/11/18 19:47:26;;;;;;;9.20;8.20;;;;;;;-3.38;80.92;98719.78;436228;1282;143520;-63
2022/11/18 19:57:32;;;;;;;11.10;9.50;;;;;;;-3.45;80.50;98731.04;435464;1283;145071;-63
2022/11/18 20:07:38;;;;;;;8.80;7.80;;;;;;;-3.60;80.30;98736.48;436173;1284;152828;-63
2022/11/18 20:17:43;;;;;;;10.30;8.20;;;;;;;-3.66;80.24;98745.84;435387;1284;142959;-62
2022/11/18 20:27:49;;;;;;;13.60;10.20;;;;;;;-3.66;80.06;98754.73;436213;1281;143155;-63
2022/11/18 20:37:55;;;;;;;8.10;6.80;;;;;;;-3.71;79.48;98762.69;436135;1284;143243;-63
2022/11/18 20:48:01;;;;;;;10.10;7.70;;;;;;;-3.76;79.20;98763.33;435491;1277;142668;-64
2022/11/18 20:58:07;;;;;;;8.60;7.60;;;;;;;-3.90;78.73;98769.73;434845;1278;143060;-61
2022/11/18 21:08:11;;;;;;;;;;;;;;;-4.27;78.26;98788.30;428891;1275;144444;-63
2022/11/18 21:18:16;;;;;;;11.50;8.30;;;;;;;-4.56;78.02;98785.00;435747;1282;129615;-63
2022/11/18 21:28:26;;;;;;;9.50;8.10;;;;;;;-4.93;78.37;98791.67;434376;1283;142939;-63
2022/11/18 21:38:32;;;;;;;9.30;8.40;;;;;;;-5.18;78.97;98797.63;430690;1276;142848;-64
2022/11/18 21:48:38;;;;;;;10.20;8.60;;;;;;;-5.39;79.51;98800.28;435007;1284;196479;-64
2022/11/18 21:58:44;;;;;;;14.50;9.90;;;;;;;-5.52;79.93;98810.83;435317;1283;141664;-64
2022/11/18 22:08:50;;;;;;;12.50;9.50;;;;;;;-5.68;80.11;98820.73;434545;1284;144431;-64
2022/11/18 22:18:57;;;;;;;12.60;10.20;;;;;;;-5.81;80.44;98829.04;435265;1283;142509;-63
2022/11/18 22:29:12;;;;;;;23.90;13.10;;;;;;;-5.81;80.62;98836.88;435291;1283;143310;-65
2022/11/18 22:39:18;;;;;;;13.50;11.40;;;;;;;-5.90;80.88;98846.52;434565;1284;143543;-64
2022/11/18 22:49:24;;;;;;;13.00;10.10;;;;;;;-5.96;80.87;98851.33;435306;1286;143391;-66
2022/11/18 22:59:28;;;;;;;;;;;;;;;-5.87;81.03;98852.10;421001;1278;143822;-66
2022/11/18 23:09:34;;;;;;;13.90;10.00;;;;;;;-5.88;81.16;98852.98;434924;1290;184756;-66
2022/11/18 23:19:42;;;;;;;12.30;9.70;;;;;;;-5.92;81.66;98851.64;435328;1284;143155;-66
2022/11/18 23:29:48;;;;;;;15.00;9.70;;;;;;;-5.89;81.76;98855.88;434607;1283;143333;-67
2022/11/18 23:39:52;;;;;;;;;;;;;;;-5.65;82.01;98855.65;435441;1277;185093;-67
2022/11/18 23:49:58;;;;;;;15.80;10.60;;;;;;;-5.43;82.10;98858.15;436007;1284;130936;-67
